Time;durP1;ratioP1;P1;durP2;ratioP2;P2;SDS_P1;SDS_P2;PMS_P1;PMS_P2;Temp;Humidity;BMP_temperature;BMP_pressure;BME280_temperature;BME280_humidity;BME280_pressure;Samples;Min_cycle;Max_cycle;Signal;HPM_P1;HPM_P2
2024/04/09 00:00:08;;;;;;;24.27;12.65;;;;;;;;;;5379376;26;20019;-78
2024/04/09 00:02:34;;;;;;;18.83;10.18;;;;;;;;;;5378556;26;20015;-78
2024/04/09 00:05:00;;;;;;;18.95;9.05;;;;;;;;;;5378692;26;20058;-78
2024/04/09 00:07:26;;;;;;;14.98;8.60;;;;;;;;;;5378285;26;20000;-78
2024/04/09 00:09:52;;;;;;;18.85;10.30;;;;;;;;;;5377774;26;20011;-78
2024/04/09 00:12:21;;;;;;;19.55;10.32;;;;;;;;;;5378005;26;20328;-77
2024/04/09 00:14:50;;;;;;;19.47;11.20;;;;;;;;;;5378417;26;20011;-77
2024/04/09 00:17:19;;;;;;;18.50;9.73;;;;;;;;;;5378206;26;20004;-78
2024/04/09 00:19:47;;;;;;;21.33;12.05;;;;;;;;;;5378622;26;20000;-78
2024/04/09 00:22:13;;;;;;;18.10;10.10;;;;;;;;;;5378550;26;20057;-78
2024/04/09 00:24:39;;;;;;;16.55;9.35;;;;;;;;;;5379655;26;20008;-78
2024/04/09 00:27:06;;;;;;;21.23;9.27;;;;;;;;;;5379897;26;20004;-78
2024/04/09 00:29:34;;;;;;;19.00;7.85;;;;;;;;;;5377805;26;20028;-78
2024/04/09 00:32:00;;;;;;;19.17;11.57;;;;;;;;;;5378038;26;20007;-78
2024/04/09 00:34:26;;;;;;;16.77;11.38;;;;;;;;;;5379434;26;20011;-76
2024/04/09 00:36:53;;;;;;;19.73;10.82;;;;;;;;;;5377778;26;20432;-79
2024/04/09 00:39:22;;;;;;;20.02;12.68;;;;;;;;;;5377864;26;20118;-78
2024/04/09 00:41:48;;;;;;;20.63;12.10;;;;;;;;;;5378027;26;20016;-78
2024/04/09 00:44:15;;;;;;;20.75;13.35;;;;;;;;;;5378116;26;20001;-78
2024/04/09 00:46:42;;;;;;;22.00;12.88;;;;;;;;;;5378031;26;20004;-78
2024/04/09 00:49:08;;;;;;;17.30;10.85;;;;;;;;;;5380160;26;20047;-78
2024/04/09 00:51:34;;;;;;;19.67;10.80;;;;;;;;;;5379877;26;20012;-80
2024/04/09 00:54:01;;;;;;;18.38;10.93;;;;;;;;;;5381269;26;20000;-80
2024/04/09 00:56:28;;;;;;;16.80;9.80;;;;;;;;;;5380124;26;20013;-80
2024/04/09 00:58:54;;;;;;;20.00;12.95;;;;;;;;;;5377724;26;20348;-80
2024/04/09 01:01:20;;;;;;;15.90;11.85;;;;;;;;;;5379369;26;20011;-81
2024/04/09 01:03:48;;;;;;;19.95;10.75;;;;;;;;;;5377816;26;20011;-80
2024/04/09 01:06:14;;;;;;;14.18;9.90;;;;;;;;;;5379850;26;20448;-79
2024/04/09 01:08:40;;;;;;;19.45;12.00;;;;;;;;;;5379257;26;19996;-79
2024/04/09 01:11:07;;;;;;;20.35;12.15;;;;;;;;;;5377531;26;20011;-79
2024/04/09 01:13:33;;;;;;;16.13;11.27;;;;;;;;;;5379089;26;20000;-79
2024/04/09 01:16:01;;;;;;;13.82;8.82;;;;;;;;;;5379555;26;20004;-79
2024/04/09 01:18:27;;;;;;;16.77;10.05;;;;;;;;;;5379000;26;20000;-79
2024/04/09 01:20:54;;;;;;;18.70;10.35;;;;;;;;;;5380524;26;20004;-79
2024/04/09 01:23:20;;;;;;;15.93;8.60;;;;;;;;;;5380616;26;20007;-78
2024/04/09 01:25:46;;;;;;;15.10;8.73;;;;;;;;;;5381320;26;20000;-79
2024/04/09 01:28:13;;;;;;;15.15;8.25;;;;;;;;;;5382522;26;20015;-77
2024/04/09 01:30:40;;;;;;;15.63;8.13;;;;;;;;;;5382137;26;20015;-77
2024/04/09 01:33:06;;;;;;;15.10;8.93;;;;;;;;;;5382620;26;20011;-77
2024/04/09 01:35:32;;;;;;;15.35;7.63;;;;;;;;;;5382379;26;20000;-77
2024/04/09 01:37:59;;;;;;;14.85;8.40;;;;;;;;;;5380715;26;20087;-76
2024/04/09 01:40:25;;;;;;;11.18;7.75;;;;;;;;;;5379999;26;20073;-77
2024/04/09 01:42:51;;;;;;;11.63;6.95;;;;;;;;;;5380304;26;20482;-76
2024/04/09 01:45:17;;;;;;;14.85;8.52;;;;;;;;;;5382071;26;20000;-77
2024/04/09 01:47:43;;;;;;;11.77;7.47;;;;;;;;;;5379854;26;20012;-77
2024/04/09 01:50:10;;;;;;;13.70;7.47;;;;;;;;;;5382090;26;20015;-77
2024/04/09 01:52:36;;;;;;;10.15;5.80;;;;;;;;;;5381643;26;20017;-77
2024/04/09 01:55:05;;;;;;;10.90;6.75;;;;;;;;;;5380182;26;20025;-77
2024/04/09 01:57:31;;;;;;;10.30;6.93;;;;;;;;;;5381674;26;20483;-77
2024/04/09 01:59:58;;;;;;;12.98;6.00;;;;;;;;;;5381774;26;20031;-77
2024/04/09 02:02:24;;;;;;;11.68;6.30;;;;;;;;;;5381489;26;20332;-77
2024/04/09 02:04:50;;;;;;;10.35;5.32;;;;;;;;;;5380057;26;20000;-77
2024/04/09 02:07:16;;;;;;;8.45;4.30;;;;;;;;;;5382006;26;20038;-77
2024/04/09 02:09:43;;;;;;;12.82;6.20;;;;;;;;;;5379722;26;20011;-77
2024/04/09 02:12:09;;;;;;;10.88;6.47;;;;;;;;;;5381465;26;20068;-77
2024/04/09 02:14:36;;;;;;;11.05;5.22;;;;;;;;;;5379580;26;20361;-77
2024/04/09 02:17:02;;;;;;;11.77;4.45;;;;;;;;;;5380186;26;20004;-78
2024/04/09 02:19:28;;;;;;;9.10;4.50;;;;;;;;;;5381487;26;20518;-78
2024/04/09 02:21:54;;;;;;;12.88;5.88;;;;;;;;;;5380132;26;20001;-79
2024/04/09 02:24:22;;;;;;;12.27;5.20;;;;;;;;;;5379822;26;20451;-79
2024/04/09 02:26:48;;;;;;;14.85;5.97;;;;;;;;;;5379798;26;20424;-78
2024/04/09 02:29:14;;;;;;;10.23;4.57;;;;;;;;;;5379988;26;20014;-78
2024/04/09 02:31:40;;;;;;;9.73;4.75;;;;;;;;;;5380906;26;20000;-78
2024/04/09 02:34:06;;;;;;;12.35;4.20;;;;;;;;;;5379544;26;20004;-78
2024/04/09 02:36:32;;;;;;;11.55;4.68;;;;;;;;;;5379405;26;20051;-78
2024/04/09 02:38:58;;;;;;;11.52;4.40;;;;;;;;;;5379453;26;20008;-79
2024/04/09 02:41:24;;;;;;;10.10;4.65;;;;;;;;;;5381468;26;20000;-79
2024/04/09 02:43:51;;;;;;;13.13;4.35;;;;;;;;;;5381703;26;20004;-77
2024/04/09 02:46:17;;;;;;;9.00;4.47;;;;;;;;;;5379891;26;20004;-78
2024/04/09 02:48:43;;;;;;;12.60;4.72;;;;;;;;;;5381467;26;20000;-78
2024/04/09 02:51:09;;;;;;;7.85;3.75;;;;;;;;;;5379959;26;20082;-78
2024/04/09 02:53:36;;;;;;;9.75;4.60;;;;;;;;;;5381270;26;20447;-77
2024/04/09 02:56:03;;;;;;;8.70;3.47;;;;;;;;;;5381514;26;20408;-78
2024/04/09 02:58:29;;;;;;;10.80;3.55;;;;;;;;;;5379121;26;20437;-78
2024/04/09 03:00:56;;;;;;;6.88;2.83;;;;;;;;;;5379807;26;20032;-78
2024/04/09 03:03:22;;;;;;;5.32;2.40;;;;;;;;;;5379535;26;20011;-78
2024/04/09 03:05:49;;;;;;;8.10;2.75;;;;;;;;;;5380956;26;20413;-78
2024/04/09 03:08:15;;;;;;;6.95;2.63;;;;;;;;;;5381522;26;20004;-79
2024/04/09 03:10:41;;;;;;;6.22;2.78;;;;;;;;;;5379109;26;20000;-79
2024/04/09 03:13:07;;;;;;;8.27;2.92;;;;;;;;;;5379776;26;20373;-79
2024/04/09 03:15:33;;;;;;;7.32;2.45;;;;;;;;;;5381043;26;20068;-79
2024/04/09 03:17:59;;;;;;;7.70;3.30;;;;;;;;;;5381158;26;20463;-79
2024/04/09 03:20:25;;;;;;;10.82;3.03;;;;;;;;;;5379135;26;20004;-80
2024/04/09 03:22:51;;;;;;;7.78;2.38;;;;;;;;;;5379347;26;20317;-80
2024/04/09 03:25:18;;;;;;;5.55;2.35;;;;;;;;;;5379239;26;20011;-80
2024/04/09 03:27:44;;;;;;;4.95;2.50;;;;;;;;;;5378996;26;20000;-80
2024/04/09 03:30:10;;;;;;;7.28;3.15;;;;;;;;;;5379127;26;20000;-81
2024/04/09 03:32:36;;;;;;;7.03;2.72;;;;;;;;;;5378669;26;20000;-81
2024/04/09 03:35:02;;;;;;;6.75;2.33;;;;;;;;;;5378831;26;20000;-80
2024/04/09 03:37:28;;;;;;;6.45;2.70;;;;;;;;;;5378437;26;20411;-79
2024/04/09 03:39:54;;;;;;;9.85;3.60;;;;;;;;;;5378618;26;20005;-79
2024/04/09 03:42:20;;;;;;;10.77;3.25;;;;;;;;;;5380620;26;20007;-79
2024/04/09 03:44:46;;;;;;;7.25;2.83;;;;;;;;;;5377140;26;20065;-78
2024/04/09 03:47:12;;;;;;;7.40;3.60;;;;;;;;;;5378671;26;20077;-78
2024/04/09 03:49:38;;;;;;;8.02;3.97;;;;;;;;;;5378384;26;20012;-78
2024/04/09 03:52:05;;;;;;;9.00;4.32;;;;;;;;;;5378377;26;20106;-78
2024/04/09 03:54:31;;;;;;;9.38;3.50;;;;;;;;;;5378341;26;20290;-78
2024/04/09 03:57:03;;;;;;;6.25;3.45;;;;;;;;;;5378726;26;20020;-78
2024/04/09 03:59:29;;;;;;;11.32;4.95;;;;;;;;;;5379999;26;20235;-78
2024/04/09 04:01:55;;;;;;;12.40;6.40;;;;;;;;;;5378505;26;20074;-79
2024/04/09 04:04:21;;;;;;;12.05;7.15;;;;;;;;;;5378553;26;20000;-79
2024/04/09 04:06:47;;;;;;;13.75;5.82;;;;;;;;;;5380208;26;20000;-78
2024/04/09 04:09:13;;;;;;;10.02;6.07;;;;;;;;;;5378757;26;20028;-79
2024/04/09 04:11:39;;;;;;;9.93;6.28;;;;;;;;;;5378199;26;20329;-78
2024/04/09 04:14:05;;;;;;;11.38;5.93;;;;;;;;;;5378386;26;20000;-79
2024/04/09 04:16:31;;;;;;;13.23;7.18;;;;;;;;;;5380039;26;20068;-79
2024/04/09 04:18:57;;;;;;;12.02;8.02;;;;;;;;;;5378565;26;20078;-80
2024/04/09 04:21:23;;;;;;;11.70;7.65;;;;;;;;;;5378181;26;20000;-80
2024/04/09 04:23:56;;;;;;;13.45;9.15;;;;;;;;;;5377924;26;20000;-79
2024/04/09 04:26:26;;;;;;;15.55;9.88;;;;;;;;;;5380121;26;20017;-78
2024/04/09 04:28:52;;;;;;;;;;;;;;;;;;5380391;26;20420;-78
2024/04/09 04:31:22;;;;;;;13.60;8.90;;;;;;;;;;5378088;26;19926;-78
2024/04/09 04:33:52;;;;;;;18.30;10.88;;;;;;;;;;5379521;26;20012;-77
2024/04/09 04:36:19;;;;;;;15.32;11.23;;;;;;;;;;5379993;26;20000;-78
2024/04/09 04:38:46;;;;;;;19.42;13.07;;;;;;;;;;5379483;26;20004;-79
2024/04/09 04:41:12;;;;;;;19.27;12.95;;;;;;;;;;5378009;26;20000;-78
2024/04/09 04:43:39;;;;;;;18.17;13.60;;;;;;;;;;5377624;26;20015;-77
2024/04/09 04:46:06;;;;;;;21.10;15.45;;;;;;;;;;5377844;26;20000;-76
2024/04/09 04:48:32;;;;;;;23.38;15.98;;;;;;;;;;5377810;26;20012;-77
2024/04/09 04:50:58;;;;;;;22.58;16.77;;;;;;;;;;5377932;26;20079;-77
2024/04/09 04:53:24;;;;;;;20.55;16.58;;;;;;;;;;5377515;26;20462;-76
2024/04/09 04:55:51;;;;;;;15.07;11.75;;;;;;;;;;5379083;26;20000;-76
2024/04/09 04:58:17;;;;;;;21.92;15.48;;;;;;;;;;5381260;26;20452;-77
2024/04/09 05:00:43;;;;;;;18.20;13.27;;;;;;;;;;5382809;26;20019;-78
2024/04/09 05:03:09;;;;;;;20.02;15.15;;;;;;;;;;5381093;26;20004;-79
2024/04/09 05:05:36;;;;;;;19.95;13.60;;;;;;;;;;5382470;26;20082;-78
2024/04/09 05:08:02;;;;;;;17.00;11.13;;;;;;;;;;5381043;26;20074;-78
2024/04/09 05:10:28;;;;;;;19.98;14.25;;;;;;;;;;5380853;26;20012;-79
2024/04/09 05:12:54;;;;;;;17.17;12.98;;;;;;;;;;5380429;26;20131;-78
2024/04/09 05:15:21;;;;;;;18.20;12.48;;;;;;;;;;5380743;26;20000;-78
2024/04/09 05:17:47;;;;;;;13.73;10.82;;;;;;;;;;5380432;26;20004;-78
2024/04/09 05:20:16;;;;;;;15.05;11.82;;;;;;;;;;5380990;26;20359;-78
2024/04/09 05:22:42;;;;;;;11.60;7.47;;;;;;;;;;5382333;26;19996;-78
2024/04/09 05:25:09;;;;;;;14.45;9.52;;;;;;;;;;5382721;26;20335;-77
2024/04/09 05:27:36;;;;;;;16.90;12.68;;;;;;;;;;5380628;26;20332;-78
2024/04/09 05:30:02;;;;;;;20.27;13.60;;;;;;;;;;5381079;26;20012;-78
2024/04/09 05:32:29;;;;;;;18.52;13.13;;;;;;;;;;5380765;26;20004;-78
2024/04/09 05:34:55;;;;;;;16.50;13.05;;;;;;;;;;5380825;26;20041;-80
2024/04/09 05:37:21;;;;;;;16.88;12.32;;;;;;;;;;5381290;26;20009;-79
2024/04/09 05:39:48;;;;;;;19.67;15.13;;;;;;;;;;5381921;26;20019;-79
2024/04/09 05:42:14;;;;;;;20.67;13.20;;;;;;;;;;5381188;26;20148;-78
2024/04/09 05:44:40;;;;;;;17.98;11.05;;;;;;;;;;5380549;26;20036;-77
2024/04/09 05:47:06;;;;;;;17.80;14.63;;;;;;;;;;5380777;26;20001;-77
2024/04/09 05:49:32;;;;;;;14.80;11.52;;;;;;;;;;5382601;26;20004;-77
2024/04/09 05:51:58;;;;;;;17.40;13.13;;;;;;;;;;5380242;26;20008;-77
2024/04/09 05:54:25;;;;;;;13.93;11.20;;;;;;;;;;5380799;26;20004;-78
2024/04/09 05:56:51;;;;;;;12.88;9.07;;;;;;;;;;5382227;26;20448;-77
2024/04/09 05:59:18;;;;;;;11.52;8.10;;;;;;;;;;5380457;26;20004;-78
2024/04/09 06:01:44;;;;;;;11.38;7.50;;;;;;;;;;5380016;26;20073;-77
2024/04/09 06:04:10;;;;;;;13.07;7.18;;;;;;;;;;5380422;26;20004;-76
2024/04/09 06:06:36;;;;;;;12.07;7.78;;;;;;;;;;5381027;26;20004;-77
2024/04/09 06:09:03;;;;;;;10.88;6.55;;;;;;;;;;5380105;26;20440;-77
2024/04/09 06:11:29;;;;;;;8.43;5.50;;;;;;;;;;5380338;26;20008;-77
2024/04/09 06:13:55;;;;;;;8.82;4.55;;;;;;;;;;5380089;26;20004;-78
2024/04/09 06:16:21;;;;;;;8.80;5.07;;;;;;;;;;5380188;26;20000;-79
2024/04/09 06:18:47;;;;;;;9.13;6.10;;;;;;;;;;5379753;26;20428;-78
2024/04/09 06:21:14;;;;;;;10.38;4.72;;;;;;;;;;5380313;26;20012;-79
2024/04/09 06:23:40;;;;;;;10.98;5.78;;;;;;;;;;5381628;26;20459;-79
2024/04/09 06:26:06;;;;;;;7.88;5.68;;;;;;;;;;5380284;26;20004;-78
2024/04/09 06:28:33;;;;;;;10.75;5.13;;;;;;;;;;5381926;26;19996;-74
2024/04/09 06:30:59;;;;;;;9.10;4.20;;;;;;;;;;5379710;26;20081;-77
2024/04/09 06:33:28;;;;;;;8.23;4.80;;;;;;;;;;5379745;26;20012;-77
2024/04/09 06:35:54;;;;;;;9.00;5.55;;;;;;;;;;5379843;26;20447;-77
2024/04/09 06:38:20;;;;;;;8.43;5.18;;;;;;;;;;5379539;26;20035;-77
2024/04/09 06:40:53;;;;;;;8.25;4.00;;;;;;;;;;5380826;26;20436;-77
2024/04/09 06:43:19;;;;;;;9.65;4.85;;;;;;;;;;5379771;26;20032;-77
2024/04/09 06:45:45;;;;;;;9.35;5.25;;;;;;;;;;5379151;26;20016;-78
2024/04/09 06:48:12;;;;;;;9.95;4.47;;;;;;;;;;5381533;26;20000;-77
2024/04/09 06:50:38;;;;;;;5.75;3.72;;;;;;;;;;5381270;26;20452;-77
2024/04/09 06:53:04;;;;;;;7.00;3.80;;;;;;;;;;5380955;26;20000;-77
2024/04/09 06:55:30;;;;;;;7.75;3.38;;;;;;;;;;5381176;26;20012;-77
2024/04/09 06:57:56;;;;;;;6.75;2.47;;;;;;;;;;5379146;26;20087;-77
2024/04/09 07:00:22;;;;;;;6.10;1.45;;;;;;;;;;5381298;26;20073;-77
2024/04/09 07:02:48;;;;;;;10.65;1.60;;;;;;;;;;5378965;26;20038;-77
2024/04/09 07:05:14;;;;;;;2.15;1.02;;;;;;;;;;5379514;26;20005;-77
2024/04/09 07:07:41;;;;;;;5.85;1.50;;;;;;;;;;5379316;26;20004;-76
2024/04/09 07:10:07;;;;;;;3.55;1.30;;;;;;;;;;5379400;26;20015;-77
2024/04/09 07:12:33;;;;;;;5.85;1.23;;;;;;;;;;5379240;26;20015;-77
2024/04/09 07:15:00;;;;;;;5.90;1.35;;;;;;;;;;5380848;26;20001;-77
2024/04/09 07:17:26;;;;;;;2.85;0.88;;;;;;;;;;5379624;26;20008;-77
2024/04/09 07:19:55;;;;;;;2.53;0.82;;;;;;;;;;5380531;26;20004;-77
2024/04/09 07:22:23;;;;;;;6.10;1.48;;;;;;;;;;5379158;26;20011;-77
2024/04/09 07:24:49;;;;;;;8.15;1.83;;;;;;;;;;5379094;26;20079;-77
2024/04/09 07:27:15;;;;;;;12.20;1.98;;;;;;;;;;5379708;26;19997;-77
2024/04/09 07:29:41;;;;;;;3.50;0.77;;;;;;;;;;5378760;26;20052;-77
2024/04/09 07:32:07;;;;;;;4.32;1.65;;;;;;;;;;5380825;26;20000;-76
2024/04/09 07:34:34;;;;;;;5.93;1.02;;;;;;;;;;5379091;26;20440;-77
2024/04/09 07:37:00;;;;;;;5.80;1.63;;;;;;;;;;5378774;26;20004;-75
2024/04/09 07:39:26;;;;;;;9.77;1.42;;;;;;;;;;5378524;26;20312;-77
2024/04/09 07:41:52;;;;;;;9.07;1.40;;;;;;;;;;5380678;26;20000;-79
2024/04/09 07:44:18;;;;;;;6.00;1.13;;;;;;;;;;5380493;26;20139;-77
2024/04/09 07:46:48;;;;;;;5.18;1.02;;;;;;;;;;5380028;26;20001;-77
2024/04/09 07:49:15;;;;;;;8.73;1.67;;;;;;;;;;5379175;26;20004;-78
2024/04/09 07:51:41;;;;;;;4.95;0.90;;;;;;;;;;5380812;26;20444;-78
2024/04/09 07:54:07;;;;;;;7.15;1.98;;;;;;;;;;5378716;26;20363;-78
2024/04/09 07:56:33;;;;;;;6.30;1.25;;;;;;;;;;5380385;26;20026;-78
2024/04/09 07:59:00;;;;;;;6.97;1.25;;;;;;;;;;5380041;26;20031;-78
2024/04/09 08:01:26;;;;;;;6.80;1.27;;;;;;;;;;5380527;26;20000;-78
2024/04/09 08:03:52;;;;;;;6.57;1.48;;;;;;;;;;5379916;26;20436;-79
2024/04/09 08:06:18;;;;;;;7.10;1.20;;;;;;;;;;5378488;26;20014;-78
2024/04/09 08:08:44;;;;;;;5.03;1.35;;;;;;;;;;5378146;26;19996;-78
2024/04/09 08:11:10;;;;;;;7.65;1.17;;;;;;;;;;5380276;26;20031;-79
2024/04/09 08:13:36;;;;;;;7.25;1.30;;;;;;;;;;5378465;26;20001;-78
2024/04/09 08:16:03;;;;;;;10.45;1.60;;;;;;;;;;5380052;26;20383;-78
2024/04/09 08:18:29;;;;;;;5.53;0.93;;;;;;;;;;5380151;26;20012;-79
2024/04/09 08:20:55;;;;;;;11.73;2.10;;;;;;;;;;5377979;26;20451;-78
2024/04/09 08:23:21;;;;;;;5.95;1.77;;;;;;;;;;5378213;26;20000;-78
2024/04/09 08:25:49;;;;;;;3.85;1.15;;;;;;;;;;5377948;26;20355;-78
2024/04/09 08:28:18;;;;;;;6.60;1.10;;;;;;;;;;5380144;26;20016;-78
2024/04/09 08:30:44;;;;;;;8.43;1.77;;;;;;;;;;5379214;26;20004;-79
2024/04/09 08:33:10;;;;;;;5.47;1.25;;;;;;;;;;5378272;26;20011;-79
2024/04/09 08:35:41;;;;;;;8.43;1.30;;;;;;;;;;5378034;26;20015;-78
2024/04/09 08:38:07;;;;;;;16.23;2.58;;;;;;;;;;5377647;26;20004;-78
2024/04/09 08:40:34;;;;;;;6.43;2.15;;;;;;;;;;5378021;26;20001;-77
2024/04/09 08:43:01;;;;;;;5.35;1.27;;;;;;;;;;5377543;26;20004;-77
2024/04/09 08:45:30;;;;;;;7.10;1.42;;;;;;;;;;5379645;26;20290;-78
2024/04/09 08:47:57;;;;;;;13.05;1.95;;;;;;;;;;5379500;26;20140;-78
2024/04/09 08:50:24;;;;;;;4.70;0.90;;;;;;;;;;5377740;26;20004;-78
2024/04/09 08:52:50;;;;;;;8.35;2.05;;;;;;;;;;5379210;26;20408;-78
2024/04/09 08:55:17;;;;;;;7.30;1.50;;;;;;;;;;5379787;26;20004;-78
2024/04/09 08:57:43;;;;;;;4.30;1.35;;;;;;;;;;5379860;26;20055;-78
2024/04/09 09:00:09;;;;;;;8.60;1.67;;;;;;;;;;5377481;26;20011;-78
2024/04/09 09:02:35;;;;;;;8.23;1.45;;;;;;;;;;5377559;26;20004;-78
2024/04/09 09:05:01;;;;;;;12.57;2.15;;;;;;;;;;5377404;26;20004;-77
2024/04/09 09:07:28;;;;;;;11.32;1.67;;;;;;;;;;5379545;26;20001;-78
2024/04/09 09:10:03;;;;;;;13.05;2.08;;;;;;;;;;5377371;26;20004;-78
2024/04/09 09:12:29;;;;;;;11.00;2.22;;;;;;;;;;5377434;26;20445;-77
2024/04/09 09:14:56;;;;;;;5.53;1.48;;;;;;;;;;5378921;26;19997;-78
2024/04/09 09:17:22;;;;;;;7.78;1.70;;;;;;;;;;5377398;26;20015;-77
2024/04/09 09:19:58;;;;;;;3.22;0.80;;;;;;;;;;5378873;26;20000;-77
2024/04/09 09:22:24;;;;;;;6.88;1.63;;;;;;;;;;5379000;26;20012;-77
2024/04/09 09:25:00;;;;;;;4.47;1.52;;;;;;;;;;5376854;26;20320;-78
2024/04/09 09:27:29;;;;;;;8.77;1.40;;;;;;;;;;5377333;26;20028;-78
2024/04/09 09:29:55;;;;;;;6.23;1.40;;;;;;;;;;5377197;26;20007;-78
2024/04/09 09:32:22;;;;;;;8.32;1.00;;;;;;;;;;5377596;26;20011;-78
2024/04/09 09:34:48;;;;;;;10.77;2.03;;;;;;;;;;5377233;26;20411;-78
2024/04/09 09:37:15;;;;;;;9.80;1.58;;;;;;;;;;5377378;26;20011;-78
2024/04/09 09:39:42;;;;;;;4.35;1.40;;;;;;;;;;5376823;26;20000;-78
2024/04/09 09:42:11;;;;;;;6.60;1.63;;;;;;;;;;5377189;26;20004;-78
2024/04/09 09:44:37;;;;;;;10.80;1.67;;;;;;;;;;5380492;26;20000;-78
2024/04/09 09:47:04;;;;;;;7.82;1.10;;;;;;;;;;5380184;26;20005;-78
2024/04/09 09:49:30;;;;;;;4.90;1.35;;;;;;;;;;5382302;26;20019;-78
2024/04/09 09:51:56;;;;;;;5.80;0.93;;;;;;;;;;5380173;26;20447;-78
2024/04/09 09:54:23;;;;;;;4.07;1.27;;;;;;;;;;5380384;26;20063;-78
2024/04/09 09:56:50;;;;;;;5.57;1.05;;;;;;;;;;5380427;26;20004;-78
2024/04/09 09:59:21;;;;;;;6.03;0.85;;;;;;;;;;5382295;26;20024;-77
2024/04/09 10:01:48;;;;;;;5.35;0.90;;;;;;;;;;5380234;26;20012;-78
2024/04/09 10:04:24;;;;;;;9.35;1.60;;;;;;;;;;5379986;26;20077;-78
2024/04/09 10:07:01;;;;;;;6.97;1.77;;;;;;;;;;5380122;26;20039;-78
2024/04/09 10:09:57;;;;;;;10.00;1.85;;;;;;;;;;5381970;26;20000;-78
2024/04/09 10:12:24;;;;;;;5.70;1.50;;;;;;;;;;5358084;26;19996;-78
2024/04/09 10:14:57;;;;;;;7.85;1.30;;;;;;;;;;5380300;26;20346;-78
2024/04/09 10:17:27;;;;;;;11.23;2.45;;;;;;;;;;5380318;26;20004;-78
2024/04/09 10:19:53;;;;;;;12.35;1.38;;;;;;;;;;5381502;26;20102;-79
2024/04/09 10:22:19;;;;;;;5.38;0.95;;;;;;;;;;5381840;26;20112;-78
2024/04/09 10:24:45;;;;;;;5.10;1.35;;;;;;;;;;5381877;26;20019;-78
2024/04/09 10:27:13;;;;;;;7.57;1.35;;;;;;;;;;5379653;26;20024;-78
2024/04/09 10:29:49;;;;;;;7.63;1.55;;;;;;;;;;5381886;26;20081;-79
2024/04/09 10:32:19;;;;;;;7.25;1.08;;;;;;;;;;5381619;26;20015;-78
2024/04/09 10:34:45;;;;;;;8.48;1.48;;;;;;;;;;5379999;26;20333;-78
2024/04/09 10:37:12;;;;;;;4.95;1.42;;;;;;;;;;5381421;26;20750;-79
2024/04/09 10:39:38;;;;;;;5.25;1.15;;;;;;;;;;5379686;26;20046;-78
2024/04/09 10:42:07;;;;;;;4.70;1.15;;;;;;;;;;5379646;26;20077;-79
2024/04/09 10:44:33;;;;;;;6.38;1.10;;;;;;;;;;5379636;26;20004;-78
2024/04/09 10:47:00;;;;;;;6.05;1.23;;;;;;;;;;5381104;26;20014;-79
2024/04/09 10:49:26;;;;;;;5.35;1.10;;;;;;;;;;5379658;26;20434;-79
2024/04/09 10:51:52;;;;;;;6.00;1.20;;;;;;;;;;5379458;26;20107;-79
2024/04/09 10:54:21;;;;;;;4.90;0.85;;;;;;;;;;5378986;26;20108;-78
2024/04/09 10:56:57;;;;;;;5.53;1.52;;;;;;;;;;5379453;26;20004;-78
2024/04/09 10:59:24;;;;;;;4.50;0.80;;;;;;;;;;5381175;26;20004;-79
2024/04/09 11:01:50;;;;;;;8.40;1.00;;;;;;;;;;5379402;26;20004;-78
2024/04/09 11:04:19;;;;;;;3.05;0.65;;;;;;;;;;5379075;26;20010;-78
2024/04/09 11:06:45;;;;;;;2.75;0.90;;;;;;;;;;5379467;26;20000;-78
2024/04/09 11:09:11;;;;;;;3.92;0.80;;;;;;;;;;5379153;26;20004;-78
2024/04/09 11:11:40;;;;;;;5.18;1.10;;;;;;;;;;5381331;26;20000;-78
2024/04/09 11:14:07;;;;;;;4.78;0.98;;;;;;;;;;5378900;26;20015;-78
2024/04/09 11:16:34;;;;;;;8.02;1.30;;;;;;;;;;5379168;26;20340;-78
2024/04/09 11:19:00;;;;;;;6.78;0.95;;;;;;;;;;5378486;26;20019;-78
2024/04/09 11:21:32;;;;;;;9.15;2.08;;;;;;;;;;5378969;26;20080;-78
2024/04/09 11:23:58;;;;;;;6.35;1.17;;;;;;;;;;5379047;26;20078;-78
2024/04/09 11:26:24;;;;;;;4.90;1.10;;;;;;;;;;5379341;26;19996;-77
2024/04/09 11:28:52;;;;;;;4.20;0.82;;;;;;;;;;5379130;26;20015;-78
2024/04/09 11:31:25;;;;;;;8.77;1.42;;;;;;;;;;5378998;26;20448;-78
2024/04/09 11:33:51;;;;;;;4.90;0.77;;;;;;;;;;5379453;26;20124;-78
2024/04/09 11:36:17;;;;;;;9.60;1.25;;;;;;;;;;5380445;26;20459;-78
2024/04/09 11:38:43;;;;;;;4.07;0.98;;;;;;;;;;5378531;26;20078;-78
2024/04/09 11:41:09;;;;;;;4.45;1.75;;;;;;;;;;5380815;26;20015;-78
2024/04/09 11:43:35;;;;;;;5.45;0.63;;;;;;;;;;5379253;26;20004;-78
2024/04/09 11:46:02;;;;;;;4.57;0.90;;;;;;;;;;5378871;26;20019;-78
2024/04/09 11:48:28;;;;;;;5.60;0.85;;;;;;;;;;5381127;26;20019;-78
2024/04/09 11:50:55;;;;;;;6.60;1.15;;;;;;;;;;5379332;26;20011;-78
2024/04/09 11:53:21;;;;;;;4.03;0.80;;;;;;;;;;5378879;26;20014;-78
2024/04/09 11:55:47;;;;;;;2.78;0.88;;;;;;;;;;5378626;26;20001;-78
2024/04/09 11:58:13;;;;;;;7.05;1.20;;;;;;;;;;5378307;26;20424;-78
2024/04/09 12:00:39;;;;;;;2.42;0.60;;;;;;;;;;5378494;26;20015;-78
2024/04/09 12:03:05;;;;;;;4.97;1.38;;;;;;;;;;5378129;26;20436;-78
2024/04/09 12:05:32;;;;;;;3.15;0.70;;;;;;;;;;5379119;26;20015;-79
2024/04/09 12:07:59;;;;;;;6.93;1.13;;;;;;;;;;5380038;26;19996;-78
2024/04/09 12:10:25;;;;;;;4.85;0.70;;;;;;;;;;5378803;26;20019;-79
2024/04/09 12:12:52;;;;;;;6.20;1.25;;;;;;;;;;5378256;26;20012;-78
2024/04/09 12:15:18;;;;;;;6.28;0.82;;;;;;;;;;5378130;26;20486;-79
2024/04/09 12:17:44;;;;;;;3.17;0.70;;;;;;;;;;5380028;26;20001;-79
2024/04/09 12:20:11;;;;;;;3.63;0.90;;;;;;;;;;5377889;26;20107;-79
2024/04/09 12:22:37;;;;;;;4.03;1.00;;;;;;;;;;5375994;26;20452;-78
2024/04/09 12:25:04;;;;;;;3.55;0.73;;;;;;;;;;5377831;26;20011;-77
2024/04/09 12:27:30;;;;;;;7.05;1.10;;;;;;;;;;5378150;26;20094;-77
2024/04/09 12:29:56;;;;;;;4.88;0.82;;;;;;;;;;5377656;26;20073;-78
2024/04/09 12:32:23;;;;;;;4.40;0.95;;;;;;;;;;5377602;26;20394;-78
2024/04/09 12:34:49;;;;;;;3.78;0.98;;;;;;;;;;5380116;26;20023;-78
2024/04/09 12:37:16;;;;;;;7.45;1.02;;;;;;;;;;5379928;26;20078;-79
2024/04/09 12:39:42;;;;;;;5.72;0.95;;;;;;;;;;5377608;26;20015;-78
2024/04/09 12:42:08;;;;;;;5.13;0.73;;;;;;;;;;5378288;26;20496;-79
2024/04/09 12:44:35;;;;;;;5.85;0.90;;;;;;;;;;5379793;26;20432;-78
2024/04/09 12:47:02;;;;;;;9.52;1.30;;;;;;;;;;5377980;26;20000;-78
2024/04/09 12:49:29;;;;;;;7.22;1.10;;;;;;;;;;5378549;26;20004;-78
2024/04/09 12:51:56;;;;;;;6.40;1.27;;;;;;;;;;5378314;26;20428;-78
2024/04/09 12:54:23;;;;;;;4.47;0.73;;;;;;;;;;5377443;26;20011;-78
2024/04/09 12:56:49;;;;;;;4.50;1.02;;;;;;;;;;5377831;26;20077;-78
2024/04/09 12:59:19;;;;;;;4.75;0.90;;;;;;;;;;5379025;26;20102;-78
2024/04/09 13:01:46;;;;;;;6.07;1.50;;;;;;;;;;5377693;26;20398;-78
2024/04/09 13:04:13;;;;;;;6.05;1.20;;;;;;;;;;5377263;26;20231;-77
2024/04/09 13:06:39;;;;;;;5.18;1.20;;;;;;;;;;5377474;26;20004;-78
2024/04/09 13:09:07;;;;;;;7.38;1.73;;;;;;;;;;5377294;26;20004;-78
2024/04/09 13:11:36;;;;;;;3.60;1.15;;;;;;;;;;5377645;26;20000;-78
2024/04/09 13:14:02;;;;;;;5.03;1.08;;;;;;;;;;5357674;26;20003;-78
2024/04/09 13:16:28;;;;;;;4.40;1.17;;;;;;;;;;5378357;26;20000;-78
2024/04/09 13:18:54;;;;;;;4.60;1.08;;;;;;;;;;5380713;26;20443;-78
2024/04/09 13:21:20;;;;;;;5.60;0.88;;;;;;;;;;5380708;26;20073;-78
2024/04/09 13:23:46;;;;;;;4.88;1.00;;;;;;;;;;5381383;26;20000;-78
2024/04/09 13:26:12;;;;;;;3.38;1.15;;;;;;;;;;5380344;26;20000;-78
2024/04/09 13:28:38;;;;;;;3.63;0.95;;;;;;;;;;5380599;26;20347;-78
2024/04/09 13:31:04;;;;;;;5.07;0.85;;;;;;;;;;5382232;26;20042;-78
2024/04/09 13:33:30;;;;;;;10.15;1.27;;;;;;;;;;5382605;26;20000;-77
2024/04/09 13:35:57;;;;;;;3.85;0.77;;;;;;;;;;5380761;26;20004;-77
2024/04/09 13:38:24;;;;;;;4.43;1.00;;;;;;;;;;5380647;26;20000;-79
2024/04/09 13:40:50;;;;;;;6.60;1.55;;;;;;;;;;5380840;26;20011;-78
2024/04/09 13:43:19;;;;;;;4.88;1.10;;;;;;;;;;5380483;26;20424;-78
2024/04/09 13:45:45;;;;;;;7.53;1.20;;;;;;;;;;5381127;26;20014;-78
2024/04/09 13:48:11;;;;;;;3.30;0.60;;;;;;;;;;5382380;26;20008;-78
2024/04/09 13:50:37;;;;;;;5.38;1.10;;;;;;;;;;5382557;26;20076;-78
2024/04/09 13:53:03;;;;;;;4.47;0.80;;;;;;;;;;5382037;26;20012;-78
2024/04/09 13:55:29;;;;;;;4.43;0.70;;;;;;;;;;5380711;26;20014;-77
2024/04/09 13:57:55;;;;;;;4.15;0.70;;;;;;;;;;5380283;26;20016;-79
2024/04/09 14:00:21;;;;;;;5.97;1.08;;;;;;;;;;5381610;26;20073;-78
2024/04/09 14:02:47;;;;;;;3.90;0.80;;;;;;;;;;5380198;26;20012;-79
2024/04/09 14:05:14;;;;;;;3.70;0.70;;;;;;;;;;5379780;26;20011;-79
2024/04/09 14:07:41;;;;;;;4.93;1.10;;;;;;;;;;5380471;26;20343;-78
2024/04/09 14:10:07;;;;;;;6.85;1.60;;;;;;;;;;5380269;26;20000;-78
2024/04/09 14:12:33;;;;;;;4.72;0.77;;;;;;;;;;5382350;26;20023;-78
2024/04/09 14:14:59;;;;;;;4.28;0.90;;;;;;;;;;5380163;26;20008;-78
2024/04/09 14:17:34;;;;;;;3.95;0.88;;;;;;;;;;5379875;26;20102;-78
2024/04/09 14:20:00;;;;;;;4.85;0.90;;;;;;;;;;5380041;26;19996;-78
2024/04/09 14:22:26;;;;;;;7.50;1.25;;;;;;;;;;5379881;26;19996;-78
2024/04/09 14:24:52;;;;;;;6.80;1.15;;;;;;;;;;5380048;26;20000;-78
2024/04/09 14:27:18;;;;;;;4.43;1.00;;;;;;;;;;5379934;26;20464;-78
2024/04/09 14:29:45;;;;;;;3.40;0.95;;;;;;;;;;5379575;26;20401;-79
2024/04/09 14:32:11;;;;;;;3.92;0.65;;;;;;;;;;5380166;26;20004;-78